Time;durP1;ratioP1;P1;durP2;ratioP2;P2;SDS_P1;SDS_P2;PMS_P1;PMS_P2;Temp;Humidity;BMP_temperature;BMP_pressure;BME280_temperature;BME280_humidity;BME280_pressure;Samples;Min_cycle;Max_cycle;Signal;HPM_P1;HPM_P2
2021/04/03 00:02:22;;;;;;;30.33;7.60;;;;;;;4.91;75.00;102543.28;5132259;27;20031;-68
2021/04/03 00:04:48;;;;;;;30.70;7.72;;;;;;;4.93;75.40;102544.25;5131997;27;20099;-67
2021/04/03 00:07:14;;;;;;;30.70;7.75;;;;;;;4.98;75.49;102547.13;5132526;27;20084;-68
2021/04/03 00:09:39;;;;;;;32.63;7.47;;;;;;;5.01;74.93;102544.66;5131404;27;20028;-65
2021/04/03 00:12:07;;;;;;;33.67;8.15;;;;;;;5.05;75.42;102546.63;5132298;27;20030;-68
2021/04/03 00:14:32;;;;;;;29.63;7.55;;;;;;;4.97;76.59;102545.34;5131650;27;20030;-67
2021/04/03 00:16:57;;;;;;;31.05;8.45;;;;;;;5.07;75.23;102547.63;5132212;27;20027;-68
2021/04/03 00:19:22;;;;;;;28.35;7.57;;;;;;;5.04;76.52;102552.72;5131824;27;20055;-67
2021/04/03 00:21:48;;;;;;;29.75;7.93;;;;;;;5.02;76.91;102552.63;5129761;27;20415;-67
2021/04/03 00:24:13;;;;;;;27.77;7.35;;;;;;;4.98;77.72;102554.97;5131323;28;20054;-67
2021/04/03 00:26:39;;;;;;;27.80;7.00;;;;;;;4.98;78.02;102554.97;5132051;28;20389;-67
2021/04/03 00:29:04;;;;;;;30.30;7.40;;;;;;;4.98;78.48;102552.34;5132623;28;20020;-68
2021/04/03 00:31:29;;;;;;;29.92;7.00;;;;;;;5.00;78.00;102569.09;5131666;28;20020;-68
2021/04/03 00:33:55;;;;;;;30.15;7.38;;;;;;;5.01;78.08;102560.38;5131635;27;20483;-68
2021/04/03 00:36:21;;;;;;;26.40;6.38;;;;;;;5.01;78.12;102556.06;5135369;27;20451;-68
2021/04/03 00:38:46;;;;;;;29.90;6.55;;;;;;;4.97;78.17;102551.47;5135915;27;20130;-69
2021/04/03 00:41:11;;;;;;;28.88;6.00;;;;;;;4.94;77.42;102553.94;5136150;27;20511;-67
2021/04/03 00:43:37;;;;;;;28.80;6.15;;;;;;;4.93;76.86;102551.22;5135768;27;20023;-68
2021/04/03 00:46:02;;;;;;;29.85;5.65;;;;;;;4.83;76.53;102553.31;5136365;27;20042;-67
2021/04/03 00:48:28;;;;;;;24.92;5.00;;;;;;;4.82;76.16;102554.16;5135916;27;20031;-67
2021/04/03 00:50:54;;;;;;;25.08;5.13;;;;;;;4.78;76.17;102551.28;5135826;27;20130;-68
2021/04/03 00:53:22;;;;;;;26.17;4.95;;;;;;;4.76;76.10;102548.59;5134229;27;20031;-67
2021/04/03 00:55:47;;;;;;;28.98;5.30;;;;;;;4.62;76.20;102549.53;5135856;27;20062;-66
2021/04/03 00:58:13;;;;;;;25.25;5.03;;;;;;;4.49;76.14;102543.59;5135815;27;20547;-68
2021/04/03 01:00:39;;;;;;;24.10;4.95;;;;;;;4.38;75.99;102542.06;5135150;27;20473;-68
2021/04/03 01:03:05;;;;;;;26.58;4.65;;;;;;;4.25;76.77;102542.19;5135724;27;20026;-68
2021/04/03 01:05:31;;;;;;;25.85;4.65;;;;;;;4.27;76.81;102532.75;5134751;27;20068;-68
2021/04/03 01:07:56;;;;;;;25.13;4.97;;;;;;;4.34;76.70;102534.88;5135647;27;20035;-68
2021/04/03 01:10:28;;;;;;;26.98;4.50;;;;;;;4.36;76.29;102535.88;5134194;27;20492;-68
2021/04/03 01:13:12;;;;;;;25.50;4.68;;;;;;;4.33;76.04;102538.31;5135707;27;20045;-67
2021/04/03 01:15:57;;;;;;;27.88;5.22;;;;;;;4.34;75.77;102542.75;5134325;27;20028;-68
2021/04/03 01:18:56;;;;;;;26.85;4.57;;;;;;;4.33;75.69;102543.56;5133777;27;20379;-67
2021/04/03 01:21:47;;;;;;;25.38;4.60;;;;;;;4.34;75.35;102527.03;5134502;27;20076;-68
2021/04/03 01:24:26;;;;;;;28.35;4.40;;;;;;;4.36;76.23;102538.47;5134337;27;20466;-66
2021/04/03 01:27:01;;;;;;;25.08;4.43;;;;;;;4.42;76.07;102546.69;5133985;27;20055;-68
2021/04/03 01:29:39;;;;;;;22.92;3.95;;;;;;;4.47;75.19;102542.63;5134234;27;20060;-68
2021/04/03 01:32:06;;;;;;;23.92;4.78;;;;;;;4.53;75.24;102540.34;5131344;27;20043;-68
2021/04/03 01:34:36;;;;;;;23.95;4.55;;;;;;;4.52;75.03;102535.91;5134797;27;20454;-68
2021/04/03 01:37:04;;;;;;;22.38;4.13;;;;;;;4.56;74.84;102530.84;5135295;27;20023;-68
2021/04/03 01:39:33;;;;;;;28.00;4.50;;;;;;;4.56;74.85;102533.44;5134773;27;20111;-67
2021/04/03 01:42:02;;;;;;;28.98;4.22;;;;;;;4.58;74.90;102535.34;5134383;27;20059;-67
2021/04/03 01:44:32;;;;;;;23.80;4.38;;;;;;;4.63;74.39;102532.97;5134964;27;20027;-67
2021/04/03 01:46:59;;;;;;;30.38;4.72;;;;;;;4.62;74.90;102529.47;5134013;27;20054;-67
2021/04/03 01:49:26;;;;;;;24.40;4.45;;;;;;;4.62;75.06;102528.59;5135124;27;20029;-67
2021/04/03 01:51:52;;;;;;;25.35;4.68;;;;;;;4.64;74.94;102521.69;5134541;27;20019;-67
2021/04/03 01:54:21;;;;;;;24.75;4.70;;;;;;;4.63;75.68;102530.34;5134094;27;20041;-67
2021/04/03 01:56:49;;;;;;;26.25;4.55;;;;;;;4.62;75.21;102528.59;5134699;27;20483;-67
2021/04/03 01:59:16;;;;;;;28.38;4.30;;;;;;;4.67;74.06;102527.09;5134903;27;20109;-68
2021/04/03 02:01:43;;;;;;;25.10;4.47;;;;;;;4.58;74.27;102526.59;5134842;27;20019;-67
2021/04/03 02:04:12;;;;;;;22.90;3.53;;;;;;;4.74;72.96;102525.72;5132814;27;20019;-68
2021/04/03 02:06:40;;;;;;;21.88;4.25;;;;;;;4.63;74.59;102535.59;5133764;27;20019;-67
2021/04/03 02:09:08;;;;;;;23.30;3.75;;;;;;;4.59;73.60;102546.72;5134417;27;20085;-68
2021/04/03 02:11:35;;;;;;;25.73;4.03;;;;;;;4.58;74.18;102539.69;5133199;27;20024;-67
2021/04/03 02:14:02;;;;;;;25.23;4.45;;;;;;;4.57;74.81;102538.78;5127480;27;20057;-67
2021/04/03 02:16:31;;;;;;;23.17;3.80;;;;;;;4.57;73.93;102545.75;5133309;27;20019;-67
2021/04/03 02:18:58;;;;;;;25.05;3.83;;;;;;;4.65;72.51;102550.59;5134171;27;20124;-67
2021/04/03 02:21:24;;;;;;;25.70;4.07;;;;;;;4.53;74.50;102545.56;5134008;27;20404;-67
2021/04/03 02:23:49;;;;;;;25.52;4.47;;;;;;;4.52;74.33;102549.00;5133783;27;20035;-67
2021/04/03 02:26:14;;;;;;;23.08;4.35;;;;;;;4.61;73.21;102542.47;5134223;27;20038;-67
2021/04/03 02:28:40;;;;;;;26.17;4.03;;;;;;;4.57;73.55;102546.63;5134225;27;20035;-68
2021/04/03 02:31:06;;;;;;;28.05;4.35;;;;;;;4.52;74.24;102542.88;5134468;27;20350;-67
2021/04/03 02:33:31;;;;;;;26.05;4.20;;;;;;;4.46;74.20;102543.44;5133652;27;20027;-67
2021/04/03 02:35:57;;;;;;;25.65;4.10;;;;;;;4.46;74.77;102548.66;5134070;27;20027;-66
2021/04/03 02:38:22;;;;;;;23.73;3.83;;;;;;;4.46;73.44;102543.44;5132196;27;20483;-67
2021/04/03 02:40:48;;;;;;;25.25;3.78;;;;;;;4.43;74.31;102550.22;5133977;27;20472;-67
2021/04/03 02:43:13;;;;;;;27.77;4.10;;;;;;;4.42;73.61;102545.78;5133634;27;20023;-67
2021/04/03 02:45:54;;;;;;;24.35;3.80;;;;;;;4.47;73.52;102547.84;5133985;27;20027;-67
2021/04/03 02:48:21;;;;;;;21.92;4.55;;;;;;;4.44;73.71;102550.31;5133442;27;20542;-67
2021/04/03 02:50:51;;;;;;;21.45;3.70;;;;;;;4.45;72.72;102546.84;5131651;27;20035;-67
2021/04/03 02:53:21;;;;;;;23.08;3.97;;;;;;;4.45;73.98;102541.59;5133525;27;20033;-67
2021/04/03 02:55:48;;;;;;;26.25;3.72;;;;;;;4.45;73.72;102546.84;5133546;27;20015;-67
2021/04/03 02:58:19;;;;;;;22.25;3.50;;;;;;;4.49;73.35;102555.81;5132284;27;20050;-67
2021/04/03 03:00:46;;;;;;;24.98;3.72;;;;;;;4.48;73.03;102562.72;5133365;27;20035;-67
2021/04/03 03:03:12;;;;;;;25.23;4.50;;;;;;;4.49;73.99;102559.31;5132796;27;20027;-67
2021/04/03 03:05:41;;;;;;;24.63;3.85;;;;;;;4.52;72.76;102554.25;5131772;27;20084;-67
2021/04/03 03:08:08;;;;;;;24.67;4.03;;;;;;;4.50;72.90;102553.25;5132130;27;20381;-67
2021/04/03 03:10:34;;;;;;;22.08;4.13;;;;;;;4.47;73.47;102549.56;5132051;27;20023;-68
2021/04/03 03:13:01;;;;;;;20.70;3.45;;;;;;;4.42;73.35;102544.06;5132904;27;20024;-66
2021/04/03 03:15:30;;;;;;;22.45;4.07;;;;;;;4.42;73.17;102538.81;5133027;27;20071;-67
2021/04/03 03:17:56;;;;;;;23.02;3.67;;;;;;;4.33;72.72;102536.59;5132313;27;20074;-67
2021/04/03 03:20:21;;;;;;;25.40;4.00;;;;;;;4.40;72.47;102536.94;5132857;27;20102;-66
2021/04/03 03:22:47;;;;;;;23.70;3.80;;;;;;;4.29;72.62;102534.59;5132483;27;20031;-67
2021/04/03 03:25:12;;;;;;;25.17;3.97;;;;;;;4.16;73.48;102530.38;5133028;27;20027;-66
2021/04/03 03:27:43;;;;;;;25.35;4.32;;;;;;;4.07;74.38;102537.72;5133025;27;20456;-68
2021/04/03 03:30:09;;;;;;;26.98;3.97;;;;;;;4.09;73.81;102533.50;5132605;27;20378;-67
2021/04/03 03:32:35;;;;;;;27.48;4.30;;;;;;;4.08;74.65;102536.91;5131347;27;20023;-67
2021/04/03 03:35:03;;;;;;;25.02;4.43;;;;;;;4.00;74.19;102528.63;5131808;27;20072;-68
2021/04/03 03:37:28;;;;;;;24.50;4.32;;;;;;;4.06;74.56;102530.66;5132720;27;20084;-68
2021/04/03 03:39:54;;;;;;;28.25;4.07;;;;;;;4.19;72.85;102524.41;5133049;27;20462;-67
2021/04/03 03:42:21;;;;;;;24.25;4.30;;;;;;;4.22;73.21;102521.09;5132966;27;20016;-68
2021/04/03 03:44:47;;;;;;;22.50;4.15;;;;;;;4.14;73.81;102524.16;5131573;27;20088;-69
2021/04/03 03:47:12;;;;;;;22.30;4.07;;;;;;;4.21;72.64;102521.88;5132378;27;20055;-67
2021/04/03 03:49:38;;;;;;;26.17;4.57;;;;;;;4.27;72.42;102527.50;5132475;27;20034;-68
2021/04/03 03:52:04;;;;;;;20.83;4.00;;;;;;;4.22;73.27;102534.19;5132585;27;20077;-68
2021/04/03 03:54:29;;;;;;;25.52;3.90;;;;;;;4.23;72.47;102534.25;5131787;27;20519;-67
2021/04/03 03:56:55;;;;;;;24.08;4.53;;;;;;;4.15;73.37;102533.81;5132268;27;20108;-68
2021/04/03 03:59:20;;;;;;;24.92;4.43;;;;;;;4.18;72.40;102530.50;5132684;27;20073;-67
2021/04/03 04:01:45;;;;;;;29.05;4.93;;;;;;;4.15;72.79;102535.53;5132760;27;20057;-66
2021/04/03 04:04:11;;;;;;;25.70;4.55;;;;;;;4.19;71.93;102533.19;5131574;27;20030;-66
2021/04/03 04:06:36;;;;;;;24.83;4.50;;;;;;;4.13;72.03;102537.16;5132240;27;20426;-65
2021/04/03 04:09:03;;;;;;;24.30;4.15;;;;;;;4.07;72.70;102527.25;5131828;27;20023;-65
2021/04/03 04:11:29;;;;;;;24.98;4.43;;;;;;;4.09;73.49;102538.72;5132359;27;20023;-66
2021/04/03 04:13:54;;;;;;;25.75;4.55;;;;;;;4.07;73.12;102542.06;5130529;27;20103;-65
2021/04/03 04:16:19;;;;;;;27.63;4.78;;;;;;;4.04;72.99;102536.66;5132208;27;20377;-67
2021/04/03 04:18:45;;;;;;;24.30;4.53;;;;;;;4.05;73.28;102541.03;5130483;27;20057;-67
2021/04/03 04:21:11;;;;;;;27.38;4.80;;;;;;;4.04;73.23;102542.78;5131376;27;20455;-67
2021/04/03 04:23:36;;;;;;;25.45;3.95;;;;;;;4.07;72.95;102545.56;5130803;27;20500;-68
2021/04/03 04:26:02;;;;;;;26.88;4.65;;;;;;;4.08;72.99;102551.69;5132015;27;20080;-66
2021/04/03 04:28:27;;;;;;;27.92;4.80;;;;;;;4.06;72.80;102548.09;5132351;27;20076;-67
2021/04/03 04:30:52;;;;;;;28.08;4.65;;;;;;;4.05;72.86;102555.06;5132111;28;20042;-66
2021/04/03 04:33:18;;;;;;;27.17;4.68;;;;;;;4.07;72.85;102557.75;5131071;28;20106;-67
2021/04/03 04:35:43;;;;;;;26.60;5.00;;;;;;;4.04;73.26;102558.47;5130928;27;20031;-64
2021/04/03 04:38:09;;;;;;;27.90;4.35;;;;;;;4.04;73.92;102562.81;5130934;27;20073;-65
2021/04/03 04:40:34;;;;;;;28.80;4.78;;;;;;;4.05;73.07;102562.91;5131977;28;20027;-67
2021/04/03 04:42:59;;;;;;;26.70;4.47;;;;;;;4.07;73.06;102566.50;5132098;28;20411;-66
2021/04/03 04:45:25;;;;;;;28.90;4.95;;;;;;;4.06;73.12;102576.88;5131568;27;20023;-65
2021/04/03 04:47:51;;;;;;;24.83;4.32;;;;;;;4.08;72.42;102575.25;5132402;27;20053;-65
2021/04/03 04:50:16;;;;;;;26.55;4.60;;;;;;;4.04;72.66;102584.66;5130964;27;20108;-65
2021/04/03 04:52:41;;;;;;;23.90;4.55;;;;;;;4.02;73.17;102586.28;5131652;28;20057;-67
2021/04/03 04:55:07;;;;;;;24.92;4.55;;;;;;;4.03;72.89;102589.78;5131787;27;20051;-65
2021/04/03 04:57:33;;;;;;;25.60;4.45;;;;;;;4.04;72.60;102584.66;5131950;28;20035;-67
2021/04/03 04:59:58;;;;;;;24.55;4.85;;;;;;;4.04;72.16;102586.38;5131641;28;20019;-66
2021/04/03 05:02:23;;;;;;;25.02;4.68;;;;;;;4.01;72.39;102589.72;5131289;28;20432;-66
2021/04/03 05:04:49;;;;;;;27.00;4.40;;;;;;;4.04;72.37;102594.22;5131066;27;20055;-67
2021/04/03 05:07:15;;;;;;;25.30;4.30;;;;;;;4.03;72.56;102602.88;5131626;27;20106;-67
2021/04/03 05:09:41;;;;;;;26.10;4.60;;;;;;;4.02;72.68;102607.22;5132076;28;20027;-67
2021/04/03 05:12:07;;;;;;;28.30;5.15;;;;;;;4.04;72.14;102613.44;5131784;28;20070;-66
2021/04/03 05:14:32;;;;;;;27.73;4.70;;;;;;;4.04;72.54;102609.94;5130583;28;20027;-67
2021/04/03 05:16:58;;;;;;;26.45;4.38;;;;;;;4.03;72.35;102619.47;5131814;28;20397;-67
2021/04/03 05:19:23;;;;;;;26.55;4.35;;;;;;;3.96;72.70;102613.00;5131534;28;20043;-67
2021/04/03 05:21:49;;;;;;;25.27;5.30;;;;;;;3.89;72.66;102616.06;5133711;27;20436;-66
2021/04/03 05:24:14;;;;;;;24.90;4.30;;;;;;;3.78;73.45;102611.88;5135118;27;20023;-67
2021/04/03 05:26:40;;;;;;;27.00;4.50;;;;;;;3.66;73.61;102612.94;5134283;27;20067;-65
2021/04/03 05:29:05;;;;;;;28.48;4.95;;;;;;;3.54;74.15;102601.75;5135561;27;20118;-67
2021/04/03 05:31:31;;;;;;;28.40;4.13;;;;;;;3.45;74.43;102614.22;5135190;27;20031;-67
2021/04/03 05:33:56;;;;;;;27.95;4.85;;;;;;;3.32;75.26;102609.97;5135140;27;20099;-64
2021/04/03 05:36:21;;;;;;;29.17;4.57;;;;;;;3.19;76.47;102616.16;5135473;27;20376;-66
2021/04/03 05:38:46;;;;;;;28.83;4.90;;;;;;;3.06;77.66;102616.16;5134484;27;20646;-66
2021/04/03 05:41:12;;;;;;;29.65;5.00;;;;;;;2.99;77.41;102625.34;5134739;27;20465;-66
2021/04/03 05:43:38;;;;;;;26.00;4.78;;;;;;;2.91;78.16;102623.94;5135201;27;20388;-67
2021/04/03 05:46:03;;;;;;;26.13;5.03;;;;;;;2.84;79.15;102621.72;5134748;27;20067;-67
2021/04/03 05:48:29;;;;;;;25.63;4.75;;;;;;;2.77;79.17;102623.97;5135181;27;20114;-67
2021/04/03 05:50:58;;;;;;;27.42;4.97;;;;;;;2.76;79.83;102627.38;5135210;27;20533;-67
2021/04/03 05:53:24;;;;;;;26.92;5.15;;;;;;;2.74;79.94;102639.44;5132844;27;20064;-65
2021/04/03 05:55:53;;;;;;;26.95;5.05;;;;;;;2.76;79.93;102652.59;5134068;27;20058;-65
2021/04/03 05:58:18;;;;;;;28.27;5.60;;;;;;;2.77;80.37;102650.09;5134501;27;20044;-67
2021/04/03 06:00:44;;;;;;;29.70;5.85;;;;;;;2.82;79.68;102645.16;5134689;27;20023;-67
2021/04/03 06:03:10;;;;;;;26.27;4.88;;;;;;;2.88;79.22;102663.81;5134719;27;20015;-66
2021/04/03 06:05:36;;;;;;;29.83;5.38;;;;;;;2.94;79.03;102663.31;5133889;27;20015;-67
2021/04/03 06:08:01;;;;;;;28.88;5.30;;;;;;;3.01;78.61;102668.13;5134520;27;20027;-67
2021/04/03 06:10:27;;;;;;;27.60;5.63;;;;;;;3.08;78.44;102670.34;5134341;27;20017;-66
2021/04/03 06:12:52;;;;;;;26.55;5.38;;;;;;;3.12;78.73;102671.47;5135063;27;20027;-68
2021/04/03 06:15:26;;;;;;;28.35;5.35;;;;;;;3.16;79.08;102672.53;5134028;27;20381;-67
2021/04/03 06:17:59;;;;;;;28.55;5.50;;;;;;;3.26;78.07;102683.69;5132829;27;20100;-65
2021/04/03 06:20:34;;;;;;;26.45;4.63;;;;;;;3.45;77.03;102684.84;5134304;27;20034;-65
2021/04/03 06:23:01;;;;;;;29.13;5.57;;;;;;;3.63;77.32;102696.44;5132161;27;20481;-67
2021/04/03 06:25:27;;;;;;;26.65;5.25;;;;;;;3.70;76.70;102692.53;5133867;27;20027;-66
2021/04/03 06:28:10;;;;;;;30.38;5.63;;;;;;;3.79;75.67;102702.66;5132940;27;20542;-66
2021/04/03 06:30:38;;;;;;;27.92;5.55;;;;;;;3.88;76.12;102697.97;5131173;27;20059;-66
2021/04/03 06:33:20;;;;;;;26.95;5.25;;;;;;;4.09;74.99;102705.31;5133861;27;20027;-68
2021/04/03 06:36:05;;;;;;;27.67;6.32;;;;;;;4.31;74.57;102705.81;5132515;27;20031;-67
2021/04/03 06:38:30;;;;;;;28.65;5.40;;;;;;;4.51;73.57;102709.63;5133925;27;20022;-67
2021/04/03 06:41:14;;;;;;;26.27;5.45;;;;;;;4.69;73.06;102707.16;5133861;27;20034;-67
2021/04/03 06:43:40;;;;;;;29.38;5.35;;;;;;;4.82;72.89;102711.41;5131820;27;20031;-66
2021/04/03 06:46:23;;;;;;;29.92;5.65;;;;;;;4.99;72.41;102712.34;5132908;27;20034;-66
2021/04/03 06:48:53;;;;;;;29.70;5.28;;;;;;;5.14;72.11;102712.31;5129653;27;20027;-65
2021/04/03 06:51:23;;;;;;;27.55;5.70;;;;;;;5.29;70.87;102721.88;5133801;27;20027;-65
2021/04/03 06:53:49;;;;;;;27.73;5.45;;;;;;;5.41;70.17;102719.91;5133019;27;20094;-65
2021/04/03 06:56:19;;;;;;;31.58;5.57;;;;;;;5.49;69.64;102717.72;5132856;27;20034;-65
2021/04/03 06:58:46;;;;;;;31.20;6.05;;;;;;;5.55;69.34;102729.47;5133009;27;20393;-65
2021/04/03 07:01:14;;;;;;;26.90;5.45;;;;;;;5.62;68.79;102727.16;5132220;27;20035;-65
2021/04/03 07:03:44;;;;;;;30.92;5.38;;;;;;;5.66;68.57;102731.75;5133129;27;20041;-65
2021/04/03 07:06:10;;;;;;;33.40;6.05;;;;;;;5.73;68.76;102733.91;5133225;27;20025;-66
2021/04/03 07:08:37;;;;;;;28.75;5.32;;;;;;;5.78;68.47;102732.41;5133344;27;20046;-65
2021/04/03 07:11:04;;;;;;;31.35;5.43;;;;;;;5.87;67.36;102727.69;5132674;27;20369;-65
2021/04/03 07:13:29;;;;;;;29.00;5.68;;;;;;;5.87;67.03;102735.56;5132691;27;20038;-65
2021/04/03 07:15:55;;;;;;;28.38;5.57;;;;;;;5.96;67.66;102736.88;5132884;27;20473;-66
2021/04/03 07:18:22;;;;;;;31.33;5.22;;;;;;;5.98;67.56;102730.91;5132582;27;20486;-65
2021/04/03 07:20:48;;;;;;;32.70;5.93;;;;;;;5.97;66.81;102737.00;5133340;27;20042;-65
2021/04/03 07:23:15;;;;;;;27.42;4.80;;;;;;;6.00;67.72;102730.97;5133011;27;20030;-66
2021/04/03 07:25:43;;;;;;;28.67;5.40;;;;;;;6.07;67.11;102741.91;5131638;27;20039;-65
2021/04/03 07:28:09;;;;;;;30.15;5.20;;;;;;;6.14;66.57;102744.84;5132802;27;20389;-65
2021/04/03 07:30:34;;;;;;;31.05;6.00;;;;;;;6.14;67.14;102736.97;5133021;27;20092;-66
2021/04/03 07:33:20;;;;;;;27.65;5.55;;;;;;;6.21;66.88;102742.63;5132893;27;20453;-66
2021/04/03 07:36:03;;;;;;;32.65;6.38;;;;;;;6.38;67.20;102747.88;5131026;27;20019;-66
2021/04/03 07:38:33;;;;;;;30.67;5.53;;;;;;;6.39;65.98;102750.56;5132578;27;20027;-66
2021/04/03 07:41:17;;;;;;;31.25;5.50;;;;;;;6.45;66.16;102747.34;5128918;27;20594;-66
2021/04/03 07:43:47;;;;;;;31.50;5.45;;;;;;;6.50;65.27;102751.13;5130114;27;20059;-67
2021/04/03 07:46:25;;;;;;;28.90;5.72;;;;;;;6.50;65.41;102759.00;5132685;27;20019;-66
2021/04/03 07:48:58;;;;;;;32.40;6.00;;;;;;;6.54;65.25;102760.97;5131290;27;20161;-65
2021/04/03 07:51:23;;;;;;;33.67;6.28;;;;;;;6.57;64.92;102761.13;5132359;27;20115;-66
2021/04/03 07:53:49;;;;;;;31.73;6.07;;;;;;;6.63;64.12;102757.91;5132358;27;20118;-66
2021/04/03 07:56:17;;;;;;;30.92;5.78;;;;;;;6.71;64.75;102753.03;5132303;27;20044;-66
2021/04/03 07:58:55;;;;;;;34.70;6.28;;;;;;;6.77;64.59;102759.50;5132185;27;20027;-66
2021/04/03 08:01:30;;;;;;;32.80;5.97;;;;;;;6.78;64.90;102755.16;5131844;27;20533;-66
2021/04/03 08:03:56;;;;;;;31.80;6.18;;;;;;;6.80;63.98;102753.47;5132262;27;20110;-65
2021/04/03 08:06:48;;;;;;;32.10;5.95;;;;;;;6.86;64.06;102769.59;5132461;27;20110;-66
2021/04/03 08:09:15;;;;;;;34.28;6.30;;;;;;;6.87;63.66;102765.22;5127682;27;20039;-66
2021/04/03 08:11:45;;;;;;;31.75;6.40;;;;;;;6.84;64.35;102759.81;5132032;27;20106;-66
2021/04/03 08:14:12;;;;;;;33.00;6.38;;;;;;;6.89;63.89;102767.09;5130760;27;20031;-66
2021/04/03 08:16:39;;;;;;;30.38;5.53;;;;;;;6.95;64.12;102772.66;5132036;27;20031;-66
2021/04/03 08:19:05;;;;;;;29.83;6.25;;;;;;;7.07;63.35;102772.38;5131572;27;20047;-66
2021/04/03 08:21:43;;;;;;;29.27;5.55;;;;;;;7.15;63.26;102778.91;5132458;27;20072;-66
2021/04/03 08:24:09;;;;;;;27.88;6.07;;;;;;;7.24;63.33;102781.09;5129404;27;20038;-67
2021/04/03 08:26:36;;;;;;;31.40;5.78;;;;;;;7.30;62.40;102784.03;5130359;27;20053;-66
2021/04/03 08:29:02;;;;;;;29.05;6.03;;;;;;;7.35;63.04;102785.97;5130903;28;20050;-67
2021/04/03 08:31:30;;;;;;;34.70;6.15;;;;;;;7.52;62.19;102781.53;5132218;27;20065;-67
2021/04/03 08:33:58;;;;;;;30.80;6.13;;;;;;;7.59;61.87;102797.69;5131439;27;20110;-66
2021/04/03 08:36:26;;;;;;;33.00;6.18;;;;;;;7.73;61.98;102789.53;5130836;28;20023;-66
2021/04/03 08:38:53;;;;;;;32.20;5.75;;;;;;;7.88;61.79;102795.53;5131710;27;20054;-67
2021/04/03 08:41:24;;;;;;;32.97;6.40;;;;;;;8.07;60.68;102804.25;5131618;28;20024;-68
2021/04/03 08:43:51;;;;;;;32.58;5.72;;;;;;;8.43;59.48;102804.13;5129788;28;20052;-67
2021/04/03 08:46:17;;;;;;;33.28;6.18;;;;;;;8.85;58.55;102804.22;5131744;27;20095;-66
2021/04/03 08:48:46;;;;;;;32.50;6.10;;;;;;;9.20;58.18;102804.78;5131747;28;20034;-68
2021/04/03 08:51:13;;;;;;;36.08;6.38;;;;;;;9.33;57.70;102799.19;5131852;27;20538;-69
2021/04/03 08:53:41;;;;;;;34.95;6.07;;;;;;;9.41;57.63;102802.16;5131539;27;20072;-69
2021/04/03 08:56:08;;;;;;;33.00;6.80;;;;;;;9.53;56.95;102799.09;5133745;27;20015;-66
2021/04/03 08:58:35;;;;;;;31.42;6.30;;;;;;;9.73;55.27;102803.41;5135037;27;20031;-66
2021/04/03 09:01:01;;;;;;;33.42;6.68;;;;;;;10.26;54.68;102801.00;5136073;27;20027;-67
2021/04/03 09:03:26;;;;;;;33.25;8.00;;;;;;;10.48;54.13;102796.53;5136592;27;20020;-69
2021/04/03 09:05:52;;;;;;;34.63;7.00;;;;;;;10.40;53.84;102798.91;5131450;27;20035;-66
2021/04/03 09:08:27;;;;;;;31.10;6.78;;;;;;;10.29;54.20;102794.91;5134471;27;20119;-67
2021/04/03 09:11:00;;;;;;;30.08;6.55;;;;;;;10.66;53.95;102791.00;5135003;27;20451;-67
2021/04/03 09:13:39;;;;;;;32.47;7.22;;;;;;;11.67;51.71;102792.50;5135974;27;20027;-67
2021/04/03 09:16:15;;;;;;;66.65;42.17;;;;;;;12.82;50.34;102791.38;5135399;27;20023;-67
2021/04/03 09:18:42;;;;;;;45.58;20.48;;;;;;;13.10;46.91;102787.63;5134935;27;20550;-67
2021/04/03 09:21:19;;;;;;;33.50;8.07;;;;;;;13.34;46.50;102792.69;5134898;27;20487;-67
2021/04/03 09:23:49;;;;;;;29.40;6.32;;;;;;;13.19;46.69;102790.53;5132881;27;20019;-67
2021/04/03 09:26:15;;;;;;;31.10;6.22;;;;;;;12.95;45.70;102787.28;5136555;27;20031;-66
2021/04/03 09:28:42;;;;;;;31.10;5.88;;;;;;;13.08;46.12;102784.94;5135218;27;20016;-66
2021/04/03 09:31:09;;;;;;;28.95;6.22;;;;;;;14.45;43.76;102791.50;5135533;27;20411;-66
2021/04/03 09:33:48;;;;;;;29.98;5.57;;;;;;;14.90;44.04;102790.59;5135161;27;20064;-65
2021/04/03 09:36:18;;;;;;;26.92;5.50;;;;;;;15.32;41.71;102784.16;5132802;27;20031;-65
2021/04/03 09:38:45;;;;;;;29.65;5.80;;;;;;;15.39;40.17;102784.25;5134917;27;20038;-66
2021/04/03 09:41:19;;;;;;;26.30;5.53;;;;;;;14.68;42.42;102785.72;5135352;27;20068;-64
2021/04/03 09:43:45;;;;;;;24.80;5.53;;;;;;;14.09;41.45;102790.78;5135023;27;20039;-63
2021/04/03 09:46:10;;;;;;;28.75;5.75;;;;;;;13.72;42.80;102783.81;5133935;27;20037;-63
2021/04/03 09:48:36;;;;;;;26.23;5.50;;;;;;;13.81;41.91;102778.69;5135034;27;20023;-64
2021/04/03 09:51:04;;;;;;;29.20;5.88;;;;;;;13.39;43.44;102785.72;5134698;27;20019;-63
2021/04/03 09:53:30;;;;;;;27.75;5.82;;;;;;;14.13;42.16;102783.78;5135054;27;20114;-64
2021/04/03 09:55:56;;;;;;;28.88;5.90;;;;;;;15.15;40.13;102769.69;5134387;27;20110;-63
2021/04/03 09:58:22;;;;;;;25.13;5.70;;;;;;;16.61;37.33;102757.31;5134097;27;20083;-64
2021/04/03 10:00:47;;;;;;;26.35;5.50;;;;;;;17.74;34.98;102758.16;5133376;27;20031;-63
2021/04/03 10:03:13;;;;;;;26.70;5.63;;;;;;;17.97;33.61;102765.41;5134909;27;20023;-63
2021/04/03 10:05:38;;;;;;;25.20;5.47;;;;;;;18.57;32.77;102763.78;5134555;27;20473;-64
2021/04/03 10:08:04;;;;;;;24.83;5.15;;;;;;;19.47;30.50;102775.41;5134286;27;20035;-63
2021/04/03 10:10:29;;;;;;;24.45;4.93;;;;;;;20.42;29.72;102773.22;5134276;27;20358;-63
2021/04/03 10:12:54;;;;;;;24.50;5.53;;;;;;;20.86;29.36;102776.50;5133623;27;20073;-65
2021/04/03 10:15:21;;;;;;;25.33;5.60;;;;;;;20.72;29.59;102773.94;5133291;27;20019;-64
2021/04/03 10:17:47;;;;;;;26.73;5.20;;;;;;;20.10;29.05;102779.66;5134254;27;20043;-64
2021/04/03 10:20:13;;;;;;;26.48;5.57;;;;;;;18.49;31.78;102770.03;5134093;27;20080;-64
2021/04/03 10:22:38;;;;;;;25.13;5.20;;;;;;;17.22;33.57;102766.75;5135589;27;20542;-63
2021/04/03 10:25:04;;;;;;;26.10;5.32;;;;;;;15.68;36.02;102764.25;5134267;27;20051;-64
2021/04/03 10:27:29;;;;;;;25.55;5.75;;;;;;;14.99;38.32;102771.19;5133531;27;20079;-64
2021/04/03 10:29:55;;;;;;;24.65;5.10;;;;;;;14.78;38.20;102771.72;5133136;27;20515;-63
2021/04/03 10:32:20;;;;;;;25.15;5.18;;;;;;;16.70;35.13;102777.88;5134142;27;20023;-64
2021/04/03 10:34:45;;;;;;;27.20;5.47;;;;;;;18.57;31.66;102776.31;5133502;27;20071;-64
2021/04/03 10:37:11;;;;;;;22.80;4.88;;;;;;;19.90;29.48;102781.56;5133905;27;20019;-64
2021/04/03 10:39:36;;;;;;;24.05;5.40;;;;;;;20.59;28.17;102781.19;5134292;27;20033;-64
2021/04/03 10:42:02;;;;;;;23.75;4.65;;;;;;;21.82;26.16;102772.88;5133243;27;20027;-64
2021/04/03 10:44:27;;;;;;;23.00;4.85;;;;;;;22.09;25.91;102782.38;5133291;27;20106;-64
2021/04/03 10:46:53;;;;;;;23.50;5.10;;;;;;;22.38;26.99;102764.97;5134257;27;20027;-64
2021/04/03 10:49:19;;;;;;;24.85;5.22;;;;;;;22.59;26.27;102788.00;5133941;27;20023;-63
2021/04/03 10:51:45;;;;;;;25.75;4.88;;;;;;;22.91;25.79;102778.50;5133677;27;20019;-63
2021/04/03 10:54:10;;;;;;;24.95;4.70;;;;;;;21.93;26.28;102776.31;5132325;27;20481;-63
2021/04/03 10:56:35;;;;;;;24.17;4.72;;;;;;;20.42;27.88;102775.91;5134006;27;20034;-64
2021/04/03 10:59:01;;;;;;;22.85;4.93;;;;;;;19.14;30.60;102771.88;5133706;27;20133;-65
2021/04/03 11:01:26;;;;;;;22.50;4.88;;;;;;;18.59;30.54;102779.88;5132624;27;20431;-65
2021/04/03 11:03:51;;;;;;;26.20;5.40;;;;;;;18.82;31.34;102778.09;5132726;27;20019;-65
2021/04/03 11:06:16;;;;;;;24.17;5.07;;;;;;;20.75;28.77;102781.06;5132856;27;20418;-65
2021/04/03 11:08:42;;;;;;;22.55;4.82;;;;;;;22.58;25.89;102776.31;5132626;27;20027;-65
2021/04/03 11:11:09;;;;;;;24.40;5.65;;;;;;;23.27;24.42;102778.78;5133218;27;20426;-65
2021/04/03 11:13:34;;;;;;;22.83;4.50;;;;;;;23.64;22.70;102773.56;5133446;27;20061;-65
2021/04/03 11:16:00;;;;;;;22.33;4.32;;;;;;;24.60;22.22;102774.22;5132590;27;20063;-65
2021/04/03 11:18:25;;;;;;;24.60;4.68;;;;;;;25.01;21.39;102772.25;5132011;27;20119;-65
2021/04/03 11:20:51;;;;;;;21.92;4.53;;;;;;;25.34;21.10;102766.03;5132173;27;20538;-65
2021/04/03 11:23:16;;;;;;;20.15;4.43;;;;;;;25.29;21.14;102749.88;5132108;27;20409;-64
2021/04/03 11:25:44;;;;;;;21.35;4.45;;;;;;;25.39;20.49;102764.06;5132599;27;20046;-65
2021/04/03 11:28:10;;;;;;;21.30;4.40;;;;;;;25.82;20.56;102761.94;5131294;27;20034;-66